JST524 YMML-YSSY
Flight info
| Callsign | JST524 |
|---|---|
| Flight time | 1h 5m |
| Altitude | 37000 |
| Route | DOSEL2/34 DOSEL Y59 RIVET |
| Aircraft | A321/M-SDE3FGHIRWY/LB1 |
Departure
| Time | 2026-05-04 09:01 |
|---|---|
| Airport | Melbourne Airport (YMML) |
Arrival
| Time | 2026-05-04 10:06 |
|---|---|
| Airport | Sydney Kingsford Smith International Airport (YSSY) |
| Time | Latitude | Longitude | Altitude | Speed | Heading |
|---|---|---|---|---|---|
| 2026-05-04 08:08 | -37.67658 | 144.84711 | 375 ft | 0 kts | 351° |
| 2026-05-04 08:40 | -37.67747 | 144.84635 | 370 ft | 3 kts | 61° |
| 2026-05-04 08:40 | -37.67763 | 144.84612 | 369 ft | 4 kts | 26° |
| 2026-05-04 08:40 | -37.67788 | 144.84599 | 368 ft | 4 kts | 25° |
| 2026-05-04 08:41 | -37.67806 | 144.84585 | 366 ft | 4 kts | 44° |
| 2026-05-04 08:41 | -37.67821 | 144.84558 | 366 ft | 4 kts | 75° |
| 2026-05-04 08:41 | -37.67825 | 144.84525 | 365 ft | 4 kts | 83° |
| 2026-05-04 08:41 | -37.67828 | 144.84497 | 365 ft | 3 kts | 82° |
| 2026-05-04 08:42 | -37.67829 | 144.84491 | 364 ft | 0 kts | 82° |
| 2026-05-04 08:46 | -37.68388 | 144.84586 | 345 ft | 16 kts | 265° |
| 2026-05-04 08:46 | -37.68399 | 144.84447 | 345 ft | 16 kts | 244° |
| 2026-05-04 08:46 | -37.68489 | 144.84349 | 342 ft | 19 kts | 214° |
| 2026-05-04 08:46 | -37.68550 | 144.84251 | 341 ft | 4 kts | 256° |
| 2026-05-04 08:47 | -37.68551 | 144.84244 | 341 ft | 0 kts | 259° |
| 2026-05-04 08:55 | -37.68552 | 144.84237 | 341 ft | 2 kts | 259° |
| 2026-05-04 08:57 | -37.67705 | 144.83935 | 361 ft | 124 kts | 351° |
| 2026-05-04 09:01 | -37.48271 | 144.88880 | 7068 ft | 285 kts | 25° |
| 2026-05-04 09:01 | -37.46470 | 144.89973 | 7754 ft | 289 kts | 25° |
| 2026-05-04 09:01 | -37.44675 | 144.91141 | 8405 ft | 293 kts | 33° |
| 2026-05-04 09:01 | -37.43101 | 144.92783 | 9032 ft | 296 kts | 47° |
| 2026-05-04 09:02 | -37.41844 | 144.94851 | 9639 ft | 299 kts | 55° |
| 2026-05-04 09:02 | -37.40638 | 144.97003 | 10225 ft | 303 kts | 55° |
| 2026-05-04 09:02 | -37.39383 | 144.99241 | 10382 ft | 323 kts | 55° |
| 2026-05-04 09:02 | -37.38050 | 145.01612 | 10509 ft | 341 kts | 54° |
| 2026-05-04 09:03 | -37.36652 | 145.04094 | 10815 ft | 351 kts | 54° |
| 2026-05-04 09:03 | -37.35230 | 145.06612 | 11293 ft | 356 kts | 54° |
| 2026-05-04 09:03 | -37.33786 | 145.09160 | 11789 ft | 359 kts | 54° |
| 2026-05-04 09:03 | -37.32332 | 145.11726 | 12271 ft | 362 kts | 54° |
| 2026-05-04 09:04 | -37.30865 | 145.14319 | 12734 ft | 365 kts | 54° |
| 2026-05-04 09:04 | -37.29389 | 145.16922 | 13176 ft | 368 kts | 54° |
| 2026-05-04 09:04 | -37.27899 | 145.19545 | 13598 ft | 370 kts | 54° |
| 2026-05-04 09:04 | -37.26399 | 145.22184 | 14006 ft | 373 kts | 54° |
| 2026-05-04 09:05 | -37.24882 | 145.24844 | 14405 ft | 376 kts | 54° |
| 2026-05-04 09:05 | -37.23355 | 145.27520 | 14794 ft | 378 kts | 54° |
| 2026-05-04 09:05 | -37.21819 | 145.30213 | 15176 ft | 381 kts | 54° |
| 2026-05-04 09:05 | -37.20274 | 145.32923 | 15546 ft | 383 kts | 54° |
| 2026-05-04 09:06 | -37.18720 | 145.35650 | 15904 ft | 386 kts | 54° |
| 2026-05-04 09:07 | -37.07556 | 145.55148 | 18122 ft | 401 kts | 54° |
| 2026-05-04 09:08 | -37.05921 | 145.57986 | 18402 ft | 403 kts | 54° |
| 2026-05-04 09:08 | -37.04297 | 145.60802 | 18671 ft | 405 kts | 54° |
| 2026-05-04 09:08 | -37.02648 | 145.63663 | 18938 ft | 407 kts | 54° |
| 2026-05-04 09:08 | -37.00985 | 145.66552 | 19201 ft | 408 kts | 54° |
| 2026-05-04 09:09 | -36.99320 | 145.69441 | 19457 ft | 410 kts | 54° |
| 2026-05-04 09:09 | -36.97648 | 145.72341 | 19706 ft | 412 kts | 54° |
| 2026-05-04 09:09 | -36.95965 | 145.75255 | 19950 ft | 414 kts | 54° |
| 2026-05-04 09:09 | -36.94275 | 145.78173 | 20186 ft | 416 kts | 54° |
| 2026-05-04 09:10 | -36.92574 | 145.81107 | 20417 ft | 418 kts | 54° |
| 2026-05-04 09:10 | -36.90865 | 145.84054 | 20643 ft | 419 kts | 54° |
| 2026-05-04 09:10 | -36.89152 | 145.87007 | 20862 ft | 421 kts | 54° |
| 2026-05-04 09:10 | -36.87429 | 145.89976 | 21080 ft | 422 kts | 54° |
| 2026-05-04 09:11 | -36.85701 | 145.92949 | 21293 ft | 424 kts | 54° |
| 2026-05-04 09:11 | -36.83964 | 145.95934 | 21502 ft | 426 kts | 54° |
| 2026-05-04 09:11 | -36.82216 | 145.98932 | 21708 ft | 427 kts | 54° |
| 2026-05-04 09:11 | -36.80468 | 146.01931 | 21905 ft | 429 kts | 54° |
| 2026-05-04 09:12 | -36.78709 | 146.04946 | 22096 ft | 430 kts | 54° |
| 2026-05-04 09:12 | -36.76947 | 146.07967 | 22277 ft | 431 kts | 54° |
| 2026-05-04 09:14 | -36.64432 | 146.29323 | 23337 ft | 440 kts | 54° |
| 2026-05-04 09:14 | -36.62623 | 146.32398 | 23463 ft | 441 kts | 54° |
| 2026-05-04 09:14 | -36.60834 | 146.35445 | 23587 ft | 441 kts | 54° |
| 2026-05-04 09:14 | -36.59022 | 146.38531 | 23712 ft | 442 kts | 54° |
| 2026-05-04 09:15 | -36.57206 | 146.41619 | 23836 ft | 442 kts | 54° |
| 2026-05-04 09:15 | -36.55386 | 146.44708 | 23961 ft | 443 kts | 54° |
| 2026-05-04 09:15 | -36.53561 | 146.47799 | 24086 ft | 443 kts | 53° |
| 2026-05-04 09:15 | -36.51736 | 146.50883 | 24210 ft | 443 kts | 53° |
| 2026-05-04 09:17 | -36.37114 | 146.75525 | 25204 ft | 443 kts | 53° |
| 2026-05-04 09:18 | -36.35279 | 146.78597 | 25329 ft | 443 kts | 53° |
| 2026-05-04 09:18 | -36.33445 | 146.81667 | 25453 ft | 443 kts | 53° |
| 2026-05-04 09:18 | -36.31613 | 146.84733 | 25578 ft | 442 kts | 53° |
| 2026-05-04 09:18 | -36.29781 | 146.87794 | 25702 ft | 442 kts | 53° |
| 2026-05-04 09:19 | -36.27948 | 146.90855 | 25827 ft | 442 kts | 53° |
| 2026-05-04 09:19 | -36.26117 | 146.93916 | 25952 ft | 442 kts | 53° |
| 2026-05-04 09:19 | -36.24288 | 146.96973 | 26078 ft | 442 kts | 53° |
| 2026-05-04 09:19 | -36.22457 | 147.00032 | 26204 ft | 442 kts | 53° |
| 2026-05-04 09:20 | -36.20629 | 147.03085 | 26328 ft | 442 kts | 53° |
| 2026-05-04 09:20 | -36.18795 | 147.06142 | 26453 ft | 441 kts | 53° |
| 2026-05-04 09:20 | -36.16961 | 147.09193 | 26578 ft | 441 kts | 53° |
| 2026-05-04 09:20 | -36.15128 | 147.12235 | 26703 ft | 441 kts | 53° |
| 2026-05-04 09:21 | -36.13295 | 147.15274 | 26828 ft | 441 kts | 53° |
| 2026-05-04 09:21 | -36.11484 | 147.18270 | 26951 ft | 441 kts | 53° |
| 2026-05-04 09:21 | -36.09649 | 147.21305 | 27076 ft | 440 kts | 53° |
| 2026-05-04 09:21 | -36.07815 | 147.24337 | 27201 ft | 440 kts | 53° |
| 2026-05-04 09:22 | -36.05959 | 147.27411 | 27328 ft | 440 kts | 53° |
| 2026-05-04 09:22 | -36.04154 | 147.30401 | 27451 ft | 440 kts | 53° |
| 2026-05-04 09:22 | -36.02323 | 147.33425 | 27576 ft | 439 kts | 53° |
| 2026-05-04 09:22 | -36.00489 | 147.36447 | 27701 ft | 439 kts | 53° |
| 2026-05-04 09:23 | -35.98660 | 147.39464 | 27826 ft | 439 kts | 53° |
| 2026-05-04 09:23 | -35.96832 | 147.42477 | 27951 ft | 439 kts | 53° |
| 2026-05-04 09:23 | -35.95003 | 147.45489 | 28076 ft | 438 kts | 53° |
| 2026-05-04 09:23 | -35.93172 | 147.48495 | 28201 ft | 438 kts | 53° |
| 2026-05-04 09:25 | -35.80375 | 147.69452 | 29076 ft | 435 kts | 53° |
| 2026-05-04 09:25 | -35.78556 | 147.72428 | 29201 ft | 435 kts | 53° |
| 2026-05-04 09:26 | -35.76734 | 147.75403 | 29326 ft | 435 kts | 53° |
| 2026-05-04 09:26 | -35.74935 | 147.78335 | 29449 ft | 434 kts | 53° |
| 2026-05-04 09:26 | -35.73112 | 147.81299 | 29574 ft | 434 kts | 53° |
| 2026-05-04 09:26 | -35.71292 | 147.84259 | 29699 ft | 433 kts | 53° |
| 2026-05-04 09:27 | -35.69474 | 147.87214 | 29824 ft | 433 kts | 53° |
| 2026-05-04 09:27 | -35.67656 | 147.90170 | 29949 ft | 433 kts | 53° |
| 2026-05-04 09:27 | -35.65839 | 147.93118 | 30074 ft | 432 kts | 53° |
| 2026-05-04 09:27 | -35.64021 | 147.96060 | 30199 ft | 432 kts | 53° |
| 2026-05-04 09:28 | -35.62208 | 147.98999 | 30324 ft | 431 kts | 53° |
| 2026-05-04 09:28 | -35.60398 | 148.01935 | 30449 ft | 431 kts | 53° |
| 2026-05-04 09:28 | -35.58587 | 148.04869 | 30574 ft | 430 kts | 53° |
| 2026-05-04 09:28 | -35.56776 | 148.07793 | 30699 ft | 430 kts | 53° |
| 2026-05-04 09:29 | -35.54964 | 148.10713 | 30823 ft | 429 kts | 53° |
| 2026-05-04 09:29 | -35.53156 | 148.13624 | 30948 ft | 429 kts | 53° |
| 2026-05-04 09:29 | -35.51347 | 148.16540 | 31073 ft | 428 kts | 53° |
| 2026-05-04 09:29 | -35.49547 | 148.19445 | 31198 ft | 428 kts | 53° |
| 2026-05-04 09:30 | -35.47746 | 148.22350 | 31323 ft | 427 kts | 53° |
| 2026-05-04 09:30 | -35.45944 | 148.25251 | 31448 ft | 427 kts | 53° |
| 2026-05-04 09:30 | -35.44145 | 148.28143 | 31573 ft | 426 kts | 52° |
| 2026-05-04 09:30 | -35.42345 | 148.31030 | 31698 ft | 426 kts | 52° |
| 2026-05-04 09:31 | -35.40546 | 148.33910 | 31822 ft | 425 kts | 52° |
| 2026-05-04 09:31 | -35.38748 | 148.36785 | 31947 ft | 425 kts | 52° |
| 2026-05-04 09:31 | -35.36948 | 148.39663 | 32072 ft | 424 kts | 52° |
| 2026-05-04 09:31 | -35.35151 | 148.42533 | 32197 ft | 424 kts | 52° |
| 2026-05-04 09:32 | -35.33384 | 148.45359 | 32320 ft | 423 kts | 52° |
| 2026-05-04 09:32 | -35.31598 | 148.48218 | 32445 ft | 422 kts | 52° |
| 2026-05-04 09:34 | -35.19138 | 148.68051 | 33318 ft | 417 kts | 52° |
| 2026-05-04 09:34 | -35.17373 | 148.70853 | 33443 ft | 415 kts | 52° |
| 2026-05-04 09:34 | -35.15611 | 148.73648 | 33568 ft | 414 kts | 52° |
| 2026-05-04 09:34 | -35.13854 | 148.76433 | 33692 ft | 413 kts | 52° |
| 2026-05-04 09:35 | -35.12103 | 148.79207 | 33817 ft | 412 kts | 52° |
| 2026-05-04 09:35 | -35.10357 | 148.81970 | 33945 ft | 410 kts | 52° |
| 2026-05-04 09:35 | -35.06861 | 148.87495 | 34010 ft | 413 kts | 52° |
| 2026-05-04 09:37 | -34.92550 | 149.10020 | 34011 ft | 421 kts | 52° |
| 2026-05-04 09:38 | -34.88936 | 149.15685 | 34010 ft | 426 kts | 52° |
| 2026-05-04 09:38 | -34.85304 | 149.21364 | 33627 ft | 433 kts | 52° |
| 2026-05-04 09:39 | -34.83424 | 149.24303 | 32553 ft | 446 kts | 52° |
| 2026-05-04 09:39 | -34.81498 | 149.27310 | 31639 ft | 454 kts | 52° |
| 2026-05-04 09:39 | -34.79555 | 149.30344 | 31012 ft | 454 kts | 52° |
| 2026-05-04 09:39 | -34.77617 | 149.33363 | 30490 ft | 451 kts | 52° |
| 2026-05-04 09:40 | -34.75697 | 149.36354 | 30006 ft | 447 kts | 52° |
| 2026-05-04 09:40 | -34.73875 | 149.39392 | 29530 ft | 443 kts | 59° |
| 2026-05-04 09:40 | -34.72405 | 149.42660 | 29065 ft | 439 kts | 62° |
| 2026-05-04 09:40 | -34.70985 | 149.45931 | 28608 ft | 435 kts | 62° |
| 2026-05-04 09:41 | -34.69574 | 149.49169 | 28164 ft | 432 kts | 62° |
| 2026-05-04 09:42 | -34.60429 | 149.70057 | 25331 ft | 409 kts | 62° |
| 2026-05-04 09:43 | -34.58648 | 149.74116 | 24751 ft | 405 kts | 62° |
| 2026-05-04 09:43 | -34.57330 | 149.77119 | 24316 ft | 401 kts | 62° |
| 2026-05-04 09:43 | -34.56465 | 149.79093 | 24025 ft | 399 kts | 62° |
| 2026-05-04 09:43 | -34.55165 | 149.82053 | 23583 ft | 396 kts | 62° |
| 2026-05-04 09:44 | -34.53871 | 149.84989 | 23137 ft | 393 kts | 62° |
| 2026-05-04 09:44 | -34.52590 | 149.87893 | 22691 ft | 389 kts | 62° |
| 2026-05-04 09:44 | -34.51315 | 149.90778 | 22247 ft | 386 kts | 62° |
| 2026-05-04 09:46 | -34.42671 | 150.10306 | 19159 ft | 365 kts | 62° |
| 2026-05-04 09:46 | -34.41470 | 150.13005 | 18722 ft | 362 kts | 62° |
| 2026-05-04 09:46 | -34.40282 | 150.15675 | 18290 ft | 359 kts | 62° |
| 2026-05-04 09:47 | -34.39103 | 150.18331 | 17860 ft | 356 kts | 62° |
| 2026-05-04 09:47 | -34.37932 | 150.20965 | 17391 ft | 355 kts | 62° |
| 2026-05-04 09:49 | -34.29825 | 150.39107 | 13459 ft | 364 kts | 62° |
| 2026-05-04 09:49 | -34.28621 | 150.41803 | 12835 ft | 364 kts | 62° |
| 2026-05-04 09:49 | -34.27422 | 150.44485 | 12298 ft | 361 kts | 62° |
| 2026-05-04 09:51 | -34.20458 | 150.60070 | 9258 ft | 343 kts | 62° |
| 2026-05-04 09:51 | -34.19321 | 150.62592 | 8763 ft | 340 kts | 62° |
| 2026-05-04 09:51 | -34.18204 | 150.65073 | 8506 ft | 330 kts | 62° |
| 2026-05-04 09:51 | -34.17129 | 150.67461 | 8374 ft | 317 kts | 62° |
| 2026-05-04 09:52 | -34.16097 | 150.69749 | 8248 ft | 305 kts | 62° |
| 2026-05-04 09:52 | -34.15104 | 150.71956 | 8094 ft | 294 kts | 62° |
| 2026-05-04 09:52 | -34.14136 | 150.74110 | 7794 ft | 290 kts | 62° |
| 2026-05-04 09:52 | -34.13175 | 150.76245 | 7449 ft | 288 kts | 62° |
| 2026-05-04 09:53 | -34.12219 | 150.78362 | 7099 ft | 287 kts | 62° |
| 2026-05-04 09:53 | -34.11266 | 150.80467 | 6748 ft | 285 kts | 61° |
| 2026-05-04 09:53 | -34.10319 | 150.82557 | 6401 ft | 283 kts | 62° |
| 2026-05-04 09:53 | -34.09378 | 150.84641 | 6073 ft | 281 kts | 62° |
| 2026-05-04 09:54 | -34.08453 | 150.86703 | 6009 ft | 280 kts | 62° |
| 2026-05-04 09:54 | -34.07523 | 150.88777 | 6015 ft | 282 kts | 62° |
| 2026-05-04 09:54 | -34.06589 | 150.90857 | 6016 ft | 282 kts | 62° |
| 2026-05-04 09:54 | -34.05652 | 150.92937 | 6016 ft | 282 kts | 62° |
| 2026-05-04 09:55 | -34.04716 | 150.95014 | 6016 ft | 282 kts | 62° |
| 2026-05-04 09:55 | -34.03825 | 150.97121 | 6012 ft | 282 kts | 70° |
| 2026-05-04 09:55 | -34.03474 | 150.99430 | 6015 ft | 281 kts | 91° |
| 2026-05-04 09:55 | -34.03827 | 151.01726 | 5950 ft | 280 kts | 112° |
| 2026-05-04 09:56 | -34.04837 | 151.03707 | 5824 ft | 278 kts | 133° |
| 2026-05-04 09:56 | -34.06172 | 151.05390 | 5702 ft | 278 kts | 134° |
| 2026-05-04 09:56 | -34.07597 | 151.06951 | 5574 ft | 276 kts | 146° |
| 2026-05-04 09:56 | -34.09301 | 151.08003 | 5443 ft | 275 kts | 162° |
| 2026-05-04 09:57 | -34.11154 | 151.08546 | 5221 ft | 274 kts | 168° |
| 2026-05-04 09:57 | -34.13031 | 151.09028 | 4695 ft | 281 kts | 168° |
| 2026-05-04 09:57 | -34.14927 | 151.09518 | 4483 ft | 273 kts | 168° |
| 2026-05-04 09:57 | -34.16749 | 151.09988 | 4352 ft | 263 kts | 168° |
| 2026-05-04 09:58 | -34.18504 | 151.10441 | 4225 ft | 253 kts | 168° |
| 2026-05-04 09:58 | -34.20187 | 151.10876 | 4099 ft | 243 kts | 168° |
| 2026-05-04 09:58 | -34.21789 | 151.11356 | 3924 ft | 234 kts | 157° |
| 2026-05-04 10:00 | -34.19307 | 151.21188 | 3013 ft | 218 kts | 23° |
| 2026-05-04 10:00 | -34.17919 | 151.21921 | 3014 ft | 217 kts | 23° |
| 2026-05-04 10:02 | -34.08228 | 151.21135 | 2393 ft | 168 kts | 347° |
| 2026-05-04 10:04 | -34.01042 | 151.19263 | 964 ft | 147 kts | 346° |
| 2026-05-04 10:04 | -34.00056 | 151.19009 | 784 ft | 147 kts | 347° |
| 2026-05-04 10:04 | -33.99064 | 151.18745 | 628 ft | 146 kts | 346° |
| 2026-05-04 10:04 | -33.98056 | 151.18487 | 403 ft | 146 kts | 346° |
| 2026-05-04 10:05 | -33.97083 | 151.18228 | 219 ft | 146 kts | 346° |
| 2026-05-04 10:05 | -33.96098 | 151.17975 | 40 ft | 141 kts | 347° |
| 2026-05-04 10:05 | -33.95258 | 151.17761 | 29 ft | 100 kts | 348° |
| 2026-05-04 10:05 | -33.94718 | 151.17622 | 29 ft | 67 kts | 348° |
| 2026-05-04 10:06 | -33.94287 | 151.17509 | 31 ft | 60 kts | 347° |
| 2026-05-04 10:06 | -33.93955 | 151.17426 | 26 ft | 24 kts | 355° |
| 2026-05-04 10:06 | -33.93909 | 151.17487 | 27 ft | 13 kts | 84° |
| 2026-05-04 10:08 | -33.93895 | 151.17543 | 28 ft | 0 kts | 73° |
| 2026-05-04 10:08 | -33.93895 | 151.17545 | 28 ft | 0 kts | 73° |
| 2026-05-04 10:09 | -33.93894 | 151.17548 | 28 ft | 1 kts | 73° |
| 2026-05-04 10:09 | -33.93876 | 151.17584 | 29 ft | 14 kts | 40° |
| 2026-05-04 10:10 | -33.93771 | 151.17577 | 29 ft | 16 kts | 347° |
| 2026-05-04 10:10 | -33.93675 | 151.17567 | 29 ft | 16 kts | 24° |
| 2026-05-04 10:10 | -33.93663 | 151.17577 | 29 ft | 3 kts | 43° |
| 2026-05-04 10:10 | -33.93641 | 151.17634 | 30 ft | 14 kts | 81° |
| 2026-05-04 10:11 | -33.93655 | 151.17760 | 30 ft | 13 kts | 100° |
| 2026-05-04 10:11 | -33.93602 | 151.17821 | 30 ft | 12 kts | 13° |
| 2026-05-04 10:11 | -33.93540 | 151.17826 | 30 ft | 4 kts | 323° |
| 2026-05-04 10:11 | -33.93529 | 151.17793 | 30 ft | 4 kts | 285° |
| 2026-05-04 10:12 | -33.93526 | 151.17776 | 30 ft | 0 kts | 282° |
| 2026-05-04 10:12 | -33.93525 | 151.17770 | 30 ft | 0 kts | 281° |